• Join FlightAware (Why Join?)
  • Login
  • US Flag 
12:57PM EST


 

Airport Tracker/Info


-or-


 

Live Flight TrackerFlight Track Log ✈ TRS78 ✈ 01-Nov-2013 ✈ KATL - KDCA

Flight Track Log - Related Links

Times and Time Zones

All times are in EDT time to prevent confusion due to time zone crossing. See the TRS78 flight status page for this flight to view local times or setup timezone preferences in your user account.

Time Position Orientation Groundspeed Altitude Reporting Facility
EDT Latitude Longitude Course Direction KTS MPH feet Rate Location/Type
10:28PM 33.6306 -84.4706 52° Northeast 461 531 3,400  Level Atlanta Center
10:29PM 33.6075 -84.5375 248° West 344 396 4,500 1,800 Climbing Atlanta Center
10:30PM 33.5531 -84.5872 217° Southwest 279 321 7,000 3,000 Climbing Atlanta Center
10:31PM 33.4758 -84.5642 166° South 281 323 10,500 2,460 Climbing Atlanta Center
10:32PM 33.4511 -84.4544 105° East 314 361 12,000 1,740 Climbing Atlanta Center
10:33PM 33.4578 -84.3228 86° East 368 423 14,000 1,860 Climbing Atlanta Center
10:34PM 34.0880 -83.8484 52° Northeast  Level Estimated
10:34PM 33.5394 -84.2258 45° Northeast 368 423 15,800  Level Atlanta Center
10:35PM 33.6461 -84.1536 29° Northeast 393 452 18,100 2,160 Climbing Atlanta Center
10:36PM 33.7503 -84.0639 36° Northeast 442 509 20,200 1,980 Climbing Atlanta Center
10:37PM 33.8214 -83.9289 58° Northeast 461 531 22,100 1,740 Climbing Atlanta Center
10:38PM 33.8942 -83.7836 59° Northeast 488 562 23,700 1,560 Climbing Atlanta Center
10:39PM 33.9772 -83.6381 55° Northeast 513 590 25,300 1,380 Climbing Atlanta Center
10:40PM 34.0583 -83.5147 52° Northeast 519 597 26,500 1,080 Climbing Atlanta Center
10:41PM 34.1492 -83.3661 54° Northeast 539 620 27,500 1,080 Climbing Atlanta Center
10:42PM 34.2422 -83.2194 52° Northeast 544 626 28,700 1,200 Climbing Atlanta Center
10:43PM 34.3392 -83.0653 53° Northeast 561 646 29,900 1,440 Climbing Atlanta Center
10:44PM 34.4339 -82.9131 53° Northeast 561 646 31,600 1,680 Climbing Atlanta Center
10:45PM 34.5203 -82.7656 55° Northeast 552 635 33,300 1,740 Climbing Atlanta Center
10:46PM 34.6083 -82.6206 54° Northeast 533 613 35,100 1,440 Climbing Atlanta Center
10:47PM 34.6986 -82.4850 51° Northeast 522 601 36,200 900 Climbing Atlanta Center
10:48PM 34.7844 -82.3444 53° Northeast 517 595 36,900 360 Climbing Atlanta Center
10:49PM 34.8719 -82.2008 53° Northeast 517 595 37,000  Climbing Atlanta Center
10:50PM 34.9636 -82.0492 54° Northeast 510 587 37,000  Level Atlanta Center
10:51PM 35.0467 -81.9078 54° Northeast 510 587 37,000  Level Atlanta Center
10:52PM 35.1256 -81.7608 57° Northeast 521 600 37,000  Level Atlanta Center
10:53PM 35.2039 -81.6086 58° Northeast 521 600 37,000  Level Atlanta Center
10:54PM 35.2822 -81.4589 57° Northeast 521 600 37,000  Level Atlanta Center
10:55PM 35.3583 -81.3114 58° Northeast 516 594 37,000  Level Atlanta Center
10:56PM 35.4361 -81.1558 58° Northeast 521 600 37,000  Level Atlanta Center
10:57PM 35.5161 -81.0075 56° Northeast 528 608 37,000  Level Atlanta Center
10:58PM 35.5956 -80.8567 57° Northeast 528 608 37,000  Level Atlanta Center
10:59PM 35.6731 -80.7053 58° Northeast 528 608 37,000  Level Atlanta Center
11:00PM 35.7522 -80.5561 57° Northeast 523 602 37,000 -480 Level Atlanta Center
11:03PM 35.9203 -80.2267 58° Northeast 541 623 35,500 -840 Descending Washington Center
11:04PM 35.9967 -80.0797 57° Northeast 523 602 34,400 -1,260 Descending Washington Center
11:05PM 36.0800 -79.9175 58° Northeast 523 602 33,000 -720 Descending Washington Center
11:06PM 36.1625 -79.7703 55° Northeast 559 643 33,000  Level Washington Center
11:07PM 36.2622 -79.5953 55° Northeast 570 656 33,000 -600 Level Washington Center
11:08PM 36.3572 -79.4325 54° Northeast 570 656 31,900 -1,320 Descending Washington Center
11:09PM 36.4483 -79.2611 57° Northeast 580 667 30,500 -1,500 Descending Washington Center
11:10PM 36.5450 -79.0978 54° Northeast 585 673 29,000 -1,260 Descending Washington Center
11:11PM 36.6375 -78.9283 56° Northeast 590 679 28,000 -960 Descending Washington Center
11:12PM 36.7186 -78.7817 55° Northeast 585 673 27,100 -1,020 Descending Washington Center
11:13PM 36.8497 -78.6364 42° Northeast 565 650 26,000 -1,080 Descending Washington Center
11:14PM 36.9717 -78.5164 38° Northeast 560 644 25,000 -540 Descending Washington Center
11:15PM 37.0872 -78.3986 39° Northeast 547 629 25,000 -240 Level Washington Center
11:16PM 37.2044 -78.2803 39° Northeast 535 616 24,600 -480 Descending Washington Center
11:17PM 37.3069 -78.1769 39° Northeast 529 609 24,100 -540 Descending Washington Center
11:18PM 37.4283 -78.0553 39° Northeast 523 602 23,600 -540 Descending Washington Center
11:19PM 37.5414 -77.9333 41° Northeast 523 602 23,100 -540 Descending Washington Center
11:20PM 37.6561 -77.8189 38° Northeast 528 608 22,600 -1,140 Descending Washington Center
11:21PM 37.7731 -77.6989 39° Northeast 528 608 20,900 -2,100 Descending Washington Center
11:22PM 37.8814 -77.5833 40° Northeast 528 608 18,400 -2,460 Descending Washington Center
11:23PM 37.9894 -77.4756 38° Northeast 514 592 15,900 -2,460 Descending Washington Center
11:24PM 38.0828 -77.3778 39° Northeast 473 544 13,600 -2,460 Descending Washington Center
11:25PM 38.1758 -77.2822 39° Northeast 441 507 11,100 -1,800 Descending Washington Center
11:26PM 38.2564 -77.1967 40° Northeast 405 466 10,000 -1,200 Descending Washington Center
11:27PM 38.3364 -77.1456 27° Northeast 343 395 8,700 -1,380 Descending Washington Center
11:28PM 38.4158 -77.1181 15° North 318 366 7,300 -1,440 Descending Washington Center
11:29PM 38.4933 -77.0906 16° North 295 339 5,900 -1,260 Descending Washington Center
11:30PM 38.5667 -77.0628 16° North 282 325 4,900 -1,080 Descending Washington Center
11:31PM 38.6419 -77.0375 15° North 277 319 3,800 -1,260 Descending Washington Center
11:31PM 38.6833 -77.0167 21° North 270 311 2,900 -1,260 Descending Potomac TRACON
11:32PM 38.7500 -77.0333 349° North 225 259 1,900 -1,080 Descending Potomac TRACON
11:33PM 38.8000 -77.0333 360° North 149 171 900 -900 Descending Potomac TRACON
11:34PM 38.8333 -77.0333 360° North 135 155 300 -720 Descending Potomac TRACON
11:36PM 38.8500 -77.0333 North  Level FlightAware Approximate
11:43PM 38.8519 -77.0377 North  Level Estimated